Airfield :
LOGIN :

Register | Disclaimer

   EN    FR    IT 

 










Legend :    VFR   Marginal VFR   IFR   Intensive IFR   Very Intensive IFR
Visi :
Ceiling :
>= 8 km
>= 3000ft
5 to 8 km
1000 to 3000 ft
1500m to 5 km
500 to 1000 ft
800 to 1500m
200 to 500 ft
< 800m
< 200 ft
Symbols :   Thunderstorms  Fog  Heavy snow  Heavy precipitations  Wind > 20 kt
SIGMETs :     Misc.  Thunderstorms  Icing  Turbulence  Mountain Waves  Volcanic Ashes






- Airport Elevation : 17 ft
- IATA code : GRQ


EHGG - Groningen Eelde

CURRENT METAR :
  • 120555Z AUTO 09007KT 060V120 9999 NSC 22/15 Q1016 NOSIG

EXPIRED METARs :
  • 120525Z AUTO 09006KT 060V120 9999 NSC 21/15 Q1016 NOSIG
  • 120455Z AUTO 09006KT 050V110 9999 NSC 21/15 Q1016 NOSIG
  • 120425Z AUTO 09007KT 9999 NSC 21/15 Q1016 NOSIG
  • 120355Z AUTO 09007KT 060V120 9999 NSC 21/15 Q1015
  • 120325Z AUTO 10006KT 070V130 9999 NSC 22/15 Q1015

TAF TAF EHGG
Valid from the 12 at 06:00 until the 13 at 12:00 UTC


120456Z 1206/1312 10009KT CAVOK
PROB30
TEMPO 1215/1219 12018G28KT 4000 TSRA SCT060CB



MET'MAP, your aeronautical weather chart ! - Copyright ORBIFLY December 2007 - Disclaimer

ORBIFLY MET'MAP TEAM :

Programming & Development : Alexandra Zaïnal
Concept & original design : Baudouin d'Aumeries
Assistance for programming : Marc-Olivier Méhu
Technical & hardware support : Manuel Goepfert

Contact : metmap@orbifly.com




SOURCES & CREDITS :

   NOAA